This is the latest recevied weather packets stored in our database for station/object KI4FRU. If no packets are shown the sender has not sent any weather packets the latest 10 day(s).
| Time | Temp. | Humidity | Pressure | Rain* | Wind** | Luminosity | Snow |
|---|---|---|---|---|---|---|---|
| 1777829558 | 19.44° C | 42% | 1057.8 hPa | 0 mm | - | 769 W/m² | - |
| 1777829255 | 18.89° C | 47% | 1058 hPa | 0 mm | - | 742 W/m² | - |
| 1777828952 | 20° C | 43% | 1058.1 hPa | 0 mm | - | 187 W/m² | - |
| 1777828649 | 18.33° C | 50% | 1058.3 hPa | 0 mm | - | 709 W/m² | - |
| 1777828347 | 17.78° C | 48% | 1058.2 hPa | 0 mm | - | 782 W/m² | - |
| 1777828043 | 18.33° C | 44% | 1058.2 hPa | 0 mm | - | 409 W/m² | - |
| 1777827741 | 19.44° C | 43% | 1058.4 hPa | 0 mm | - | 222 W/m² | - |
| 1777827437 | 18.33° C | 43% | 1058.5 hPa | 0 mm | - | 774 W/m² | - |
| 1777827134 | 18.89° C | 45% | 1058.7 hPa | 0 mm | - | 63 W/m² | - |
| 1777826830 | 18.89° C | 45% | 1058.6 hPa | 0 mm | - | 220 W/m² | - |
| 1777826528 | 17.78° C | 44% | 1058.7 hPa | 0 mm | - | 765 W/m² | - |
| 1777826224 | 18.89° C | 44% | 1058.9 hPa | 0 mm | - | 124 W/m² | - |
| 1777825922 | 18.89° C | 44% | 1058.8 hPa | 0 mm | - | 110 W/m² | - |
| 1777825618 | 18.33° C | 48% | 1058.9 hPa | 0 mm | - | 655 W/m² | - |
| 1777825317 | 17.78° C | 46% | 1059 hPa | 0 mm | - | 589 W/m² | - |
| 1777825013 | 17.22° C | 43% | 1058.9 hPa | 0 mm | - | 744 W/m² | - |
| 1777824709 | 18.33° C | 45% | 1058.8 hPa | 0 mm | - | 261 W/m² | - |
| 1777824406 | 18.33° C | 45% | 1059.1 hPa | 0 mm | - | 736 W/m² | - |
| 1777824102 | 16.67° C | 51% | 1059.3 hPa | 0 mm | - | 730 W/m² | - |
| 1777823798 | 16.67° C | 46% | 1059.3 hPa | 0 mm | - | 725 W/m² | - |
| 1777823496 | 16.67° C | 45% | 1059.3 hPa | 0 mm | - | 720 W/m² | - |
| 1777823193 | 15° C | 52% | 1059.4 hPa | 0 mm | - | 707 W/m² | - |
| 1777822891 | 14.44° C | 53% | 1059.4 hPa | 0 mm | - | 358 W/m² | - |
| 1777822589 | 15° C | 56% | 1059.6 hPa | 0 mm | - | 44 W/m² | - |
| 1777822286 | 15° C | 54% | 1059.3 hPa | 0 mm | - | 39 W/m² | - |
* Rain latest hour (hover to see other rain measurements)
** Current wind speed in m/s (hover to see current wind gust speed)